createdAt,value
2023-05-19T00:00:02.347Z,24.70
2023-05-19T00:02:39.534Z,27.65
2023-05-19T00:05:08.037Z,30.73
2023-05-19T00:07:38.246Z,32.40
2023-05-19T00:10:07.101Z,27.52
2023-05-19T00:12:34.967Z,27.02
2023-05-19T00:15:02.636Z,28.25
2023-05-19T00:17:31.046Z,27.88
2023-05-19T00:19:58.338Z,26.67
2023-05-19T00:22:25.884Z,23.75
2023-05-19T00:24:53.105Z,22.50
2023-05-19T00:27:20.820Z,23.17
2023-05-19T00:29:47.993Z,22.48
2023-05-19T00:32:15.956Z,23.10
2023-05-19T00:34:43.256Z,21.98
2023-05-19T00:37:10.628Z,23.23
2023-05-19T00:39:37.808Z,25.05
2023-05-19T00:42:05.849Z,22.70
2023-05-19T00:44:33.062Z,39.22
2023-05-19T00:47:00.391Z,23.88
2023-05-19T00:49:27.693Z,27.20
2023-05-19T00:51:55.756Z,23.05
2023-05-19T00:54:23.824Z,22.00
2023-05-19T00:59:18.820Z,23.48
2023-05-19T01:01:49.029Z,21.60
2023-05-19T01:04:20.119Z,26.52
2023-05-19T01:06:55.209Z,23.60
2023-05-19T01:09:23.554Z,23.98
2023-05-19T01:14:20.369Z,25.65
2023-05-19T01:17:20.687Z,24.27
2023-05-19T01:20:16.964Z,26.00
2023-05-19T01:23:29.418Z,25.08
2023-05-19T01:26:52.774Z,25.27
2023-05-19T01:30:11.812Z,26.40
2023-05-19T01:32:42.610Z,23.27
2023-05-19T01:35:16.029Z,25.02
2023-05-19T01:37:45.334Z,35.47
2023-05-19T01:40:13.525Z,29.38
2023-05-19T01:42:42.065Z,23.35
2023-05-19T01:45:10.576Z,24.70
2023-05-19T01:50:11.018Z,21.00
2023-05-19T01:52:38.536Z,24.77
2023-05-19T01:55:07.242Z,25.98
2023-05-19T01:58:46.855Z,27.73
2023-05-19T02:01:38.417Z,31.65
2023-05-19T02:04:30.408Z,25.10
2023-05-19T02:07:38.084Z,21.38
2023-05-19T02:10:11.874Z,23.17
2023-05-19T02:12:41.471Z,25.70
2023-05-19T02:15:21.941Z,21.13
2023-05-19T02:17:54.360Z,25.40
2023-05-19T02:20:24.863Z,22.45
2023-05-19T02:22:52.258Z,37.83
2023-05-19T02:25:19.527Z,25.92
2023-05-19T02:27:46.960Z,29.25
2023-05-19T02:30:14.186Z,30.63
2023-05-19T02:32:41.462Z,29.17
2023-05-19T02:35:10.329Z,24.88
2023-05-19T02:37:37.926Z,27.88
2023-05-19T02:40:06.700Z,30.08
2023-05-19T02:42:34.132Z,34.17
2023-05-19T02:45:01.392Z,33.88
2023-05-19T02:47:28.705Z,35.75
2023-05-19T02:49:55.996Z,29.27
2023-05-19T02:52:25.532Z,39.65
2023-05-19T02:54:52.771Z,35.88
2023-05-19T02:57:23.144Z,31.52
2023-05-19T02:59:51.104Z,31.20
2023-05-19T03:02:18.563Z,30.00
2023-05-19T03:04:46.098Z,34.97
2023-05-19T03:07:13.554Z,31.00
2023-05-19T03:09:41.028Z,36.80
2023-05-19T03:12:08.597Z,32.72
2023-05-19T03:14:37.748Z,33.67
2023-05-19T03:17:07.995Z,33.13
2023-05-19T03:19:35.965Z,28.30
2023-05-19T03:22:03.631Z,35.17
2023-05-19T03:24:31.555Z,29.25
2023-05-19T03:26:59.058Z,30.50
2023-05-19T03:29:26.477Z,33.83
2023-05-19T03:31:54.335Z,47.70
2023-05-19T03:34:22.414Z,37.75
2023-05-19T03:39:17.864Z,37.40
2023-05-19T03:41:47.903Z,35.83
2023-05-19T03:44:15.836Z,37.65
2023-05-19T03:46:44.006Z,42.42
2023-05-19T03:49:31.388Z,43.88
2023-05-19T03:52:33.866Z,39.75
2023-05-19T03:55:11.652Z,56.17
2023-05-19T03:57:41.516Z,46.53
2023-05-19T04:00:11.440Z,40.35
2023-05-19T04:02:45.243Z,46.13
2023-05-19T04:05:14.471Z,45.42
2023-05-19T04:07:42.957Z,42.63
2023-05-19T04:10:10.943Z,45.42
2023-05-19T04:12:38.244Z,43.88
2023-05-19T04:15:06.647Z,45.40
2023-05-19T04:20:01.376Z,44.58
2023-05-19T04:24:56.904Z,49.00
2023-05-19T04:27:26.069Z,39.47
2023-05-19T04:29:54.679Z,55.95
2023-05-19T04:32:22.595Z,42.28
2023-05-19T04:34:51.002Z,47.13
2023-05-19T04:37:24.246Z,53.25
2023-05-19T04:42:21.072Z,43.65
2023-05-19T04:47:21.497Z,44.17
2023-05-19T04:49:49.292Z,47.42
2023-05-19T04:52:21.690Z,41.92
2023-05-19T04:54:49.038Z,46.47
2023-05-19T04:57:16.661Z,42.47
2023-05-19T04:59:44.552Z,40.85
2023-05-19T05:02:12.309Z,51.50
2023-05-19T05:04:42.573Z,58.47
2023-05-19T05:07:10.756Z,42.47
2023-05-19T05:09:38.836Z,38.97
2023-05-19T05:12:07.975Z,46.47
2023-05-19T05:14:37.164Z,40.15
2023-05-19T05:17:05.079Z,44.40
2023-05-19T05:19:33.578Z,43.33
2023-05-19T05:22:01.541Z,48.28
2023-05-19T05:24:29.267Z,43.60
2023-05-19T05:26:59.762Z,42.50
2023-05-19T05:29:27.179Z,40.75
2023-05-19T05:31:57.176Z,60.05
2023-05-19T05:34:25.027Z,45.80
2023-05-19T05:36:52.272Z,60.53
2023-05-19T05:39:20.260Z,40.90
2023-05-19T05:41:47.612Z,63.20
2023-05-19T05:44:14.823Z,63.58
2023-05-19T05:46:44.685Z,69.60
2023-05-19T05:49:13.453Z,55.85
2023-05-19T05:51:54.361Z,51.67
2023-05-19T05:54:32.945Z,50.33
2023-05-19T05:57:02.582Z,45.78
2023-05-19T05:59:30.125Z,43.75
2023-05-19T06:01:57.366Z,43.08
2023-05-19T06:04:25.695Z,47.33
2023-05-19T06:06:57.247Z,42.40
2023-05-19T06:09:26.624Z,48.35
2023-05-19T06:11:53.834Z,42.03
2023-05-19T06:14:21.167Z,39.33
2023-05-19T06:17:08.379Z,41.15
2023-05-19T06:19:35.650Z,41.50
2023-05-19T06:22:03.358Z,44.35
2023-05-19T06:24:31.387Z,39.20
2023-05-19T06:26:58.712Z,48.15
2023-05-19T06:29:25.983Z,38.75
2023-05-19T06:31:56.167Z,44.55
2023-05-19T06:34:23.483Z,42.63
2023-05-19T06:36:50.819Z,42.10
2023-05-19T06:39:19.822Z,39.78
2023-05-19T06:41:47.041Z,44.72
2023-05-19T06:44:27.636Z,41.33
2023-05-19T06:46:54.929Z,57.67
2023-05-19T06:49:22.587Z,40.80
2023-05-19T06:51:49.969Z,40.08
2023-05-19T06:54:17.284Z,49.17
2023-05-19T06:56:45.036Z,35.28
2023-05-19T06:59:12.523Z,49.83
2023-05-19T07:01:39.845Z,42.42
2023-05-19T07:04:07.213Z,44.45
2023-05-19T07:06:34.908Z,42.42
2023-05-19T07:09:03.561Z,48.22
2023-05-19T07:11:31.924Z,41.30
2023-05-19T07:13:59.404Z,41.08
2023-05-19T07:16:30.818Z,45.67
2023-05-19T07:18:58.094Z,43.78
2023-05-19T07:21:25.559Z,59.05
2023-05-19T07:23:52.926Z,50.05
2023-05-19T07:26:20.269Z,45.33
2023-05-19T07:28:47.489Z,45.22
2023-05-19T07:31:14.900Z,43.40
2023-05-19T07:33:42.351Z,43.45
2023-05-19T07:36:09.742Z,39.35
2023-05-19T07:38:37.327Z,52.75
2023-05-19T07:41:04.734Z,42.58
2023-05-19T07:43:32.072Z,43.72
2023-05-19T07:45:59.454Z,37.28
2023-05-19T07:48:26.785Z,37.83
2023-05-19T07:50:54.416Z,44.85
2023-05-19T07:53:22.859Z,36.80
2023-05-19T07:55:50.254Z,44.13
2023-05-19T07:58:17.535Z,40.45
2023-05-19T08:00:45.889Z,55.70
2023-05-19T08:03:13.803Z,43.45
2023-05-19T08:05:42.374Z,43.53
2023-05-19T08:10:36.921Z,40.28
2023-05-19T08:13:05.176Z,39.38
2023-05-19T08:18:01.711Z,64.80
2023-05-19T08:22:56.298Z,44.80
2023-05-19T08:25:23.609Z,41.55
2023-05-19T08:27:51.274Z,42.40
2023-05-19T08:30:18.537Z,36.03
2023-05-19T08:32:45.800Z,40.70
2023-05-19T08:35:13.206Z,37.70
2023-05-19T08:37:41.000Z,37.90
2023-05-19T08:40:12.274Z,37.45
2023-05-19T08:42:39.521Z,35.80
2023-05-19T08:45:07.724Z,39.30
2023-05-19T08:50:10.720Z,36.80
2023-05-19T08:53:02.410Z,38.05
2023-05-19T08:55:35.655Z,34.97
2023-05-19T08:58:05.025Z,45.72
2023-05-19T09:00:33.976Z,33.15
2023-05-19T09:03:17.562Z,30.50
2023-05-19T09:05:46.794Z,31.70
2023-05-19T09:08:14.261Z,33.13
2023-05-19T09:10:41.665Z,32.42
2023-05-19T09:13:09.500Z,30.67
2023-05-19T09:15:39.154Z,42.03
2023-05-19T09:18:13.287Z,28.15
2023-05-19T09:20:43.826Z,26.52
2023-05-19T09:23:17.309Z,26.38
2023-05-19T09:25:53.331Z,30.23
2023-05-19T09:28:33.164Z,27.17
2023-05-19T09:31:11.383Z,27.58
2023-05-19T09:33:45.529Z,34.20
2023-05-19T09:36:13.878Z,30.65
2023-05-19T09:38:41.484Z,34.85
2023-05-19T09:41:09.685Z,47.13
2023-05-19T09:43:39.230Z,29.25
2023-05-19T09:46:14.766Z,32.25
2023-05-19T09:48:42.578Z,37.20
2023-05-19T09:51:11.008Z,24.08
2023-05-19T09:56:23.569Z,33.08
2023-05-19T09:58:50.888Z,35.05
2023-05-19T10:01:19.101Z,23.52
2023-05-19T10:06:15.690Z,31.65
2023-05-19T10:08:43.703Z,29.52
2023-05-19T10:11:12.129Z,37.13
2023-05-19T10:13:39.880Z,28.73
2023-05-19T10:16:08.713Z,29.58
2023-05-19T10:18:39.094Z,25.05
2023-05-19T10:21:09.569Z,22.13
2023-05-19T10:23:36.919Z,28.77
2023-05-19T10:26:06.661Z,28.85
2023-05-19T10:28:41.187Z,28.90
2023-05-19T10:34:33.263Z,27.73
2023-05-19T10:37:35.772Z,28.70
2023-05-19T10:40:20.237Z,33.08
2023-05-19T10:43:45.956Z,26.63
2023-05-19T10:46:13.494Z,29.90
2023-05-19T10:48:46.489Z,34.22
2023-05-19T10:51:15.476Z,34.25
2023-05-19T10:53:46.839Z,27.17
2023-05-19T10:56:34.079Z,26.10
2023-05-19T10:59:03.490Z,31.73
2023-05-19T11:01:34.490Z,28.52
2023-05-19T11:04:15.660Z,37.65
2023-05-19T11:06:52.183Z,30.48
2023-05-19T11:09:22.564Z,28.35
2023-05-19T11:11:54.481Z,29.92
2023-05-19T11:14:26.815Z,45.78
2023-05-19T11:16:59.159Z,37.70
2023-05-19T11:19:35.852Z,38.60
2023-05-19T11:22:13.918Z,43.47
2023-05-19T11:24:50.001Z,45.08
2023-05-19T11:27:29.010Z,45.95
2023-05-19T11:29:59.499Z,41.72
2023-05-19T11:32:34.811Z,37.75
2023-05-19T11:35:02.818Z,56.83
2023-05-19T11:37:34.886Z,41.58
2023-05-19T11:40:07.200Z,51.63
2023-05-19T11:42:36.860Z,50.92
2023-05-19T11:45:06.790Z,42.85
2023-05-19T11:47:46.461Z,41.08
2023-05-19T11:50:21.549Z,46.78
2023-05-19T11:52:48.974Z,33.63
2023-05-19T11:55:22.137Z,39.90
2023-05-19T11:58:07.602Z,39.28
2023-05-19T12:00:41.602Z,45.40
2023-05-19T12:03:10.170Z,35.55
2023-05-19T12:05:48.220Z,41.20
2023-05-19T12:08:18.734Z,46.45
2023-05-19T12:10:52.178Z,43.08
2023-05-19T12:13:22.985Z,41.75
2023-05-19T12:15:53.235Z,49.83
2023-05-19T12:18:21.248Z,46.55
2023-05-19T12:20:48.576Z,49.13
2023-05-19T12:23:16.559Z,50.03
2023-05-19T12:28:11.645Z,46.83
2023-05-19T12:30:39.217Z,49.50
2023-05-19T12:33:09.496Z,49.10
2023-05-19T12:35:38.075Z,52.83
2023-05-19T12:38:07.170Z,48.25
2023-05-19T12:40:36.625Z,46.42
2023-05-19T12:43:05.426Z,53.88
2023-05-19T12:45:42.424Z,65.97
2023-05-19T12:48:12.214Z,49.42
2023-05-19T12:50:39.710Z,46.53
2023-05-19T12:53:11.771Z,45.38
2023-05-19T12:55:45.198Z,43.17
2023-05-19T12:58:13.217Z,55.47
2023-05-19T13:00:44.779Z,46.28
2023-05-19T13:03:18.963Z,42.85
2023-05-19T13:05:50.497Z,40.53
2023-05-19T13:08:21.826Z,47.60
2023-05-19T13:10:56.125Z,48.72
2023-05-19T13:13:23.334Z,63.78
2023-05-19T13:15:50.663Z,57.50
2023-05-19T13:18:18.592Z,46.42
2023-05-19T13:20:47.232Z,43.70
2023-05-19T13:23:14.885Z,39.25
2023-05-19T13:25:42.608Z,44.10
2023-05-19T13:28:10.808Z,52.10
2023-05-19T13:30:41.845Z,45.72
2023-05-19T13:33:09.293Z,43.67
2023-05-19T13:35:39.673Z,45.70
2023-05-19T13:38:11.261Z,46.13
2023-05-19T13:40:39.998Z,44.70
2023-05-19T13:43:08.554Z,46.95
2023-05-19T13:48:03.289Z,44.92
2023-05-19T13:50:30.655Z,31.00
2023-05-19T13:52:58.079Z,29.50
2023-05-19T13:55:27.345Z,25.60
2023-05-19T13:57:54.669Z,29.55
2023-05-19T14:00:21.954Z,31.08
2023-05-19T14:02:49.407Z,35.90
2023-05-19T14:05:17.450Z,28.17
2023-05-19T14:07:44.819Z,30.55
2023-05-19T14:10:12.112Z,34.60
2023-05-19T14:12:47.823Z,35.58
2023-05-19T14:15:27.639Z,31.88
2023-05-19T14:17:54.969Z,27.13
2023-05-19T14:20:22.267Z,30.52
2023-05-19T14:22:49.569Z,35.17
2023-05-19T14:25:16.982Z,36.13
2023-05-19T14:27:44.183Z,49.42
2023-05-19T14:30:11.929Z,37.83
2023-05-19T14:32:39.328Z,38.20
2023-05-19T14:35:07.452Z,36.97
2023-05-19T14:37:34.656Z,36.22
2023-05-19T14:40:01.935Z,39.53
2023-05-19T14:42:29.489Z,38.30
2023-05-19T14:44:56.677Z,33.95
2023-05-19T14:47:25.658Z,54.20
2023-05-19T14:49:53.559Z,44.83
2023-05-19T14:52:20.902Z,50.20
2023-05-19T14:54:48.223Z,59.17
2023-05-19T14:57:15.433Z,51.10
2023-05-19T14:59:42.684Z,55.88
2023-05-19T15:02:11.519Z,52.30
2023-05-19T15:04:38.778Z,51.15
2023-05-19T15:07:11.607Z,47.10
2023-05-19T15:09:38.856Z,59.85
2023-05-19T15:12:06.311Z,66.85
2023-05-19T15:14:33.536Z,44.53
2023-05-19T15:17:00.792Z,38.03
2023-05-19T15:19:28.202Z,35.13
2023-05-19T15:21:55.559Z,33.72
2023-05-19T15:24:22.801Z,43.40
2023-05-19T15:26:50.157Z,34.50
2023-05-19T15:29:17.510Z,34.22
2023-05-19T15:31:44.886Z,28.55
2023-05-19T15:34:12.145Z,36.67
2023-05-19T15:36:39.429Z,30.55
2023-05-19T15:39:06.738Z,33.03
2023-05-19T15:41:34.150Z,29.60
2023-05-19T15:44:02.591Z,28.00
2023-05-19T15:46:30.802Z,26.88
2023-05-19T15:48:58.049Z,22.15
2023-05-19T15:51:26.188Z,25.20
2023-05-19T15:53:53.684Z,22.42
2023-05-19T15:56:21.565Z,24.00
2023-05-19T15:58:48.840Z,28.23
2023-05-19T16:01:16.442Z,30.23
2023-05-19T16:03:47.678Z,25.23
2023-05-19T16:06:15.035Z,28.42
2023-05-19T16:08:42.192Z,24.65
2023-05-19T16:11:09.445Z,26.00
2023-05-19T16:13:36.651Z,26.10
2023-05-19T16:16:04.307Z,28.00
2023-05-19T16:18:31.531Z,25.63
2023-05-19T16:20:58.751Z,25.50
2023-05-19T16:23:27.339Z,43.25
2023-05-19T16:25:54.881Z,28.58
2023-05-19T16:28:24.502Z,37.58
2023-05-19T16:30:52.184Z,31.40
2023-05-19T16:33:19.468Z,29.58
2023-05-19T16:35:46.763Z,33.13
2023-05-19T16:38:14.053Z,25.63
2023-05-19T16:40:41.281Z,33.95
2023-05-19T16:43:08.521Z,34.15
2023-05-19T16:45:35.728Z,33.50
2023-05-19T16:48:03.599Z,33.75
2023-05-19T16:50:31.060Z,42.67
2023-05-19T16:52:58.293Z,40.05
2023-05-19T16:55:26.674Z,33.95
2023-05-19T17:00:21.136Z,32.45
2023-05-19T17:02:48.483Z,28.30
2023-05-19T17:05:15.895Z,26.52
2023-05-19T17:07:43.197Z,24.73
2023-05-19T17:10:10.867Z,28.55
2023-05-19T17:12:38.127Z,27.27
2023-05-19T17:15:06.506Z,30.42
2023-05-19T17:20:01.379Z,29.95
2023-05-19T17:22:30.247Z,35.15
2023-05-19T17:24:57.757Z,27.50
2023-05-19T17:27:25.049Z,27.55
2023-05-19T17:29:52.293Z,35.03
2023-05-19T17:32:22.974Z,27.20
2023-05-19T17:34:50.180Z,28.42
2023-05-19T17:37:19.108Z,29.27
2023-05-19T17:39:46.310Z,25.23
2023-05-19T17:42:13.643Z,27.83
2023-05-19T17:44:41.315Z,24.00
2023-05-19T17:47:08.533Z,28.30
2023-05-19T17:49:35.862Z,25.33
2023-05-19T17:52:07.338Z,29.17
2023-05-19T17:54:35.197Z,31.10
2023-05-19T17:57:08.125Z,27.42
2023-05-19T17:59:35.716Z,28.50
2023-05-19T18:02:03.817Z,30.13
2023-05-19T18:04:31.784Z,29.83
2023-05-19T18:07:00.615Z,28.20
2023-05-19T18:09:30.276Z,29.67
2023-05-19T18:12:01.905Z,29.35
2023-05-19T18:14:29.194Z,28.35
2023-05-19T18:16:56.604Z,27.75
2023-05-19T18:19:23.953Z,27.90
2023-05-19T18:21:51.462Z,32.85
2023-05-19T18:24:18.671Z,29.48
2023-05-19T18:26:46.782Z,31.38
2023-05-19T18:29:14.635Z,28.65
2023-05-19T18:31:42.264Z,26.92
2023-05-19T18:34:09.524Z,25.75
2023-05-19T18:36:36.880Z,27.90
2023-05-19T18:39:04.607Z,29.55
2023-05-19T18:41:32.060Z,27.50
2023-05-19T18:43:59.274Z,37.55
2023-05-19T18:46:26.563Z,27.13
2023-05-19T18:48:53.945Z,27.42
2023-05-19T18:51:21.733Z,35.13
2023-05-19T18:53:50.108Z,31.52
2023-05-19T18:58:55.320Z,27.95
2023-05-19T19:01:22.894Z,28.00
2023-05-19T19:03:50.552Z,30.40
2023-05-19T19:06:18.072Z,42.38
2023-05-19T19:08:45.454Z,30.25
2023-05-19T19:11:12.829Z,29.05
2023-05-19T19:13:40.408Z,30.17
2023-05-19T19:16:08.203Z,32.40
2023-05-19T19:18:36.449Z,32.00
2023-05-19T19:23:33.148Z,32.28
2023-05-19T19:26:00.607Z,33.33
2023-05-19T19:28:28.029Z,35.30
2023-05-19T19:30:55.333Z,28.45
2023-05-19T19:33:22.650Z,32.78
2023-05-19T19:35:49.982Z,33.55
2023-05-19T19:38:17.351Z,34.33
2023-05-19T19:40:44.545Z,34.28
2023-05-19T19:43:11.766Z,34.58
2023-05-19T19:45:39.505Z,34.83
2023-05-19T19:48:07.330Z,32.75
2023-05-19T19:50:34.915Z,32.75
2023-05-19T19:53:02.557Z,37.30
2023-05-19T19:55:30.829Z,44.05
2023-05-19T19:57:58.082Z,32.42
2023-05-19T20:00:25.474Z,35.55
2023-05-19T20:03:04.258Z,36.33
2023-05-19T20:05:32.943Z,31.75
2023-05-19T20:08:00.264Z,30.98
2023-05-19T20:10:27.504Z,36.25
2023-05-19T20:12:54.754Z,30.55
2023-05-19T20:15:21.994Z,34.00
2023-05-19T20:17:50.526Z,32.70
2023-05-19T20:20:17.882Z,45.08
2023-05-19T20:22:45.885Z,36.75
2023-05-19T20:25:13.186Z,34.97
2023-05-19T20:27:40.499Z,31.20
2023-05-19T20:30:08.692Z,37.30
2023-05-19T20:32:36.216Z,34.40
2023-05-19T20:35:03.646Z,35.60
2023-05-19T20:37:30.969Z,46.42
2023-05-19T20:39:58.524Z,38.92
2023-05-19T20:42:25.764Z,31.58
2023-05-19T20:44:53.016Z,32.30
2023-05-19T20:47:20.955Z,32.58
2023-05-19T20:49:48.339Z,35.17
2023-05-19T20:52:19.083Z,33.10
2023-05-19T20:54:46.444Z,34.08
2023-05-19T20:57:15.722Z,36.53
2023-05-19T20:59:42.924Z,35.28
2023-05-19T21:02:11.587Z,31.58
2023-05-19T21:04:39.423Z,49.75
2023-05-19T21:07:06.828Z,38.03
2023-05-19T21:09:34.163Z,33.17
2023-05-19T21:12:01.982Z,36.67
2023-05-19T21:14:29.246Z,36.03
2023-05-19T21:16:56.925Z,41.10
2023-05-19T21:19:24.214Z,37.33
2023-05-19T21:21:51.495Z,33.38
2023-05-19T21:24:18.683Z,38.20
2023-05-19T21:26:45.962Z,31.30
2023-05-19T21:29:13.204Z,37.55
2023-05-19T21:31:40.687Z,36.55
2023-05-19T21:34:08.033Z,38.95
2023-05-19T21:36:35.282Z,35.03
2023-05-19T21:39:03.616Z,37.05
2023-05-19T21:43:59.529Z,43.95
2023-05-19T21:46:28.912Z,38.72
2023-05-19T21:48:56.265Z,37.17
2023-05-19T21:51:23.549Z,39.55
2023-05-19T21:53:50.754Z,37.45
2023-05-19T21:56:18.010Z,34.95
2023-05-19T21:58:45.291Z,54.83
2023-05-19T22:01:13.194Z,39.55
2023-05-19T22:03:40.462Z,36.00
2023-05-19T22:06:08.262Z,41.00
2023-05-19T22:08:35.616Z,37.28
2023-05-19T22:11:03.050Z,46.88
2023-05-19T22:13:30.617Z,37.75
2023-05-19T22:15:58.389Z,34.90
2023-05-19T22:18:25.661Z,44.28
2023-05-19T22:20:52.839Z,39.20
2023-05-19T22:23:20.043Z,44.78
2023-05-19T22:25:47.245Z,38.08
2023-05-19T22:28:14.613Z,38.17
2023-05-19T22:30:44.457Z,35.22
2023-05-19T22:33:13.018Z,35.53
2023-05-19T22:35:40.360Z,39.85
2023-05-19T22:38:10.266Z,36.95
2023-05-19T22:40:38.396Z,35.05
2023-05-19T22:43:05.703Z,36.30
2023-05-19T22:45:35.813Z,33.35
2023-05-19T22:48:03.460Z,34.33
2023-05-19T22:50:30.804Z,36.35
2023-05-19T22:52:58.000Z,31.95
2023-05-19T22:55:25.314Z,35.72
2023-05-19T22:57:52.477Z,36.13
2023-05-19T23:00:20.977Z,36.13
2023-05-19T23:02:48.322Z,38.10
2023-05-19T23:05:15.773Z,34.83
2023-05-19T23:07:43.031Z,36.30
2023-05-19T23:10:10.864Z,37.15
2023-05-19T23:12:38.154Z,37.53
2023-05-19T23:15:07.869Z,42.58
2023-05-19T23:17:36.015Z,41.22
2023-05-19T23:20:03.931Z,58.75
2023-05-19T23:22:31.428Z,40.33
2023-05-19T23:24:58.712Z,47.28
2023-05-19T23:27:26.552Z,33.40
2023-05-19T23:29:53.705Z,37.15
2023-05-19T23:32:20.865Z,39.00
2023-05-19T23:34:48.753Z,34.00
2023-05-19T23:37:16.220Z,54.42
2023-05-19T23:39:43.569Z,41.33
2023-05-19T23:42:10.912Z,38.70
2023-05-19T23:44:38.133Z,38.15
2023-05-19T23:47:06.164Z,39.65
2023-05-19T23:49:33.485Z,39.05
2023-05-19T23:52:00.731Z,50.47
2023-05-19T23:54:30.165Z,51.97
2023-05-19T23:56:58.600Z,36.25
